createdAt,value
2022-08-08T00:01:08.988Z,13.57
2022-08-08T00:06:41.391Z,14.77
2022-08-08T00:12:07.598Z,16.48
2022-08-08T00:17:23.283Z,16.90
2022-08-08T00:22:31.894Z,16.33
2022-08-08T00:27:38.211Z,15.65
2022-08-08T00:32:56.208Z,15.10
2022-08-08T00:38:16.900Z,13.27
2022-08-08T00:43:58.894Z,12.27
2022-08-08T00:49:34.992Z,13.10
2022-08-08T00:55:03.211Z,12.73
2022-08-08T01:00:16.252Z,11.13
2022-08-08T01:05:59.774Z,10.05
2022-08-08T01:11:26.761Z,9.52
2022-08-08T01:16:47.272Z,8.13
2022-08-08T01:22:32.402Z,7.75
2022-08-08T01:27:51.225Z,6.93
2022-08-08T01:33:02.640Z,6.25
2022-08-08T01:38:41.142Z,7.00
2022-08-08T01:44:09.754Z,7.00
2022-08-08T01:49:38.534Z,5.78
2022-08-08T01:55:25.755Z,6.05
2022-08-08T02:00:48.428Z,6.55
2022-08-08T02:05:59.207Z,6.45
2022-08-08T02:11:23.602Z,6.68
2022-08-08T02:16:48.861Z,6.55
2022-08-08T02:22:31.389Z,6.32
2022-08-08T02:27:42.282Z,7.20
2022-08-08T02:33:16.915Z,8.38
2022-08-08T02:38:34.035Z,6.53
2022-08-08T02:44:36.884Z,7.47
2022-08-08T02:49:51.688Z,8.20
2022-08-08T02:55:10.588Z,7.35
2022-08-08T03:01:01.660Z,5.78
2022-08-08T03:06:35.709Z,5.22
2022-08-08T03:12:14.015Z,4.28
2022-08-08T03:17:39.604Z,4.00
2022-08-08T03:22:56.099Z,4.70
2022-08-08T03:28:08.144Z,4.75
2022-08-08T03:33:54.661Z,5.05
2022-08-08T03:38:54.993Z,4.32
2022-08-08T03:44:06.816Z,4.28
2022-08-08T03:49:58.887Z,3.67
2022-08-08T03:55:01.557Z,3.65
2022-08-08T04:00:11.858Z,3.90
2022-08-08T04:05:29.258Z,3.85
2022-08-08T04:10:38.997Z,3.45
2022-08-08T04:15:54.798Z,3.40
2022-08-08T04:21:23.091Z,4.13
2022-08-08T04:26:35.480Z,3.42
2022-08-08T04:31:58.990Z,4.32
2022-08-08T04:37:03.992Z,4.57
2022-08-08T04:42:09.323Z,3.92
2022-08-08T04:47:16.514Z,3.65
2022-08-08T04:52:25.209Z,3.90
2022-08-08T04:57:28.672Z,3.80
2022-08-08T05:02:32.294Z,4.28
2022-08-08T05:07:37.990Z,4.32
2022-08-08T05:13:00.578Z,4.28
2022-08-08T05:18:08.273Z,4.93
2022-08-08T05:23:11.917Z,5.35
2022-08-08T05:28:48.170Z,5.10
2022-08-08T05:33:49.511Z,5.82
2022-08-08T05:38:54.280Z,6.60
2022-08-08T05:44:05.970Z,5.70
2022-08-08T05:49:11.576Z,6.78
2022-08-08T05:54:27.625Z,6.53
2022-08-08T05:59:59.139Z,7.05
2022-08-08T06:05:34.381Z,6.65
2022-08-08T06:10:42.853Z,6.20
2022-08-08T06:15:53.419Z,5.95
2022-08-08T06:21:32.759Z,6.10
2022-08-08T06:26:50.608Z,5.50
2022-08-08T06:32:11.052Z,5.60
2022-08-08T06:37:26.028Z,5.07
2022-08-08T06:42:36.831Z,5.20
2022-08-08T06:47:52.631Z,5.60
2022-08-08T06:53:13.885Z,6.22
2022-08-08T06:58:22.082Z,5.82
2022-08-08T07:04:41.569Z,5.82
2022-08-08T07:09:41.738Z,6.07
2022-08-08T07:15:23.450Z,6.15
2022-08-08T07:20:35.054Z,6.43
2022-08-08T07:25:54.419Z,6.55
2022-08-08T07:31:01.165Z,7.30
2022-08-08T07:36:08.320Z,7.18
2022-08-08T07:41:23.517Z,7.20
2022-08-08T07:46:31.155Z,8.18
2022-08-08T07:51:53.447Z,6.85
2022-08-08T07:57:21.073Z,6.82
2022-08-08T08:02:38.456Z,7.07
2022-08-08T08:07:54.669Z,5.85
2022-08-08T08:13:43.103Z,7.15
2022-08-08T08:19:12.660Z,4.65
2022-08-08T08:24:18.924Z,6.05
2022-08-08T08:29:22.503Z,5.15
2022-08-08T08:34:32.242Z,4.53
2022-08-08T08:40:00.497Z,5.43
2022-08-08T08:45:21.318Z,5.18
2022-08-08T08:50:33.909Z,5.55
2022-08-08T08:55:41.159Z,5.07
2022-08-08T09:01:09.129Z,6.18
2022-08-08T09:06:26.479Z,3.83
2022-08-08T09:11:47.670Z,5.35
2022-08-08T09:16:59.134Z,4.80
2022-08-08T09:22:06.107Z,4.63
2022-08-08T09:27:15.038Z,4.30
2022-08-08T09:32:38.103Z,4.35
2022-08-08T09:38:00.715Z,4.30
2022-08-08T09:43:40.632Z,4.72
2022-08-08T09:48:54.705Z,4.90
2022-08-08T09:54:08.540Z,5.60
2022-08-08T10:00:02.081Z,5.47
2022-08-08T10:04:49.002Z,6.20
2022-08-08T10:10:00.790Z,6.75
2022-08-08T10:15:18.266Z,4.40
2022-08-08T10:20:27.860Z,6.57
2022-08-08T10:25:56.045Z,6.25
2022-08-08T10:31:47.345Z,6.45
2022-08-08T10:36:49.014Z,5.72
2022-08-08T10:42:19.467Z,5.57
2022-08-08T10:47:23.827Z,5.68
2022-08-08T10:52:36.673Z,4.80
2022-08-08T10:57:50.746Z,5.38
2022-08-08T11:02:57.479Z,4.80
2022-08-08T11:08:34.416Z,5.15
2022-08-08T11:13:29.782Z,5.40
2022-08-08T11:18:35.827Z,5.55
2022-08-08T11:23:42.559Z,4.93
2022-08-08T11:28:46.395Z,6.70
2022-08-08T11:34:01.552Z,6.45
2022-08-08T11:39:10.850Z,6.97
2022-08-08T11:44:16.139Z,6.75
2022-08-08T11:49:20.486Z,5.90
2022-08-08T11:54:38.253Z,5.28
2022-08-08T12:00:02.698Z,5.35
2022-08-08T12:05:15.290Z,4.55
2022-08-08T12:10:21.764Z,4.13
2022-08-08T12:15:42.594Z,4.03
2022-08-08T12:20:46.799Z,4.80
2022-08-08T12:25:52.681Z,4.60
2022-08-08T12:31:06.492Z,4.78
2022-08-08T12:36:16.531Z,4.38
2022-08-08T12:41:33.944Z,4.80
2022-08-08T12:47:00.105Z,3.85
2022-08-08T12:52:05.805Z,4.68
2022-08-08T12:57:29.087Z,4.45
2022-08-08T13:02:36.992Z,4.25
2022-08-08T13:08:03.624Z,4.43
2022-08-08T13:13:05.936Z,4.30
2022-08-08T13:18:14.067Z,4.30
2022-08-08T13:23:30.912Z,3.90
2022-08-08T13:28:42.116Z,3.83
2022-08-08T13:33:49.998Z,3.53
2022-08-08T13:38:52.997Z,3.83
2022-08-08T13:43:55.620Z,3.63
2022-08-08T13:50:33.605Z,3.15
2022-08-08T13:54:31.333Z,3.38
2022-08-08T13:59:39.312Z,3.15
2022-08-08T14:05:05.032Z,3.08
2022-08-08T14:10:33.675Z,3.22
2022-08-08T14:15:46.290Z,3.05
2022-08-08T14:21:12.904Z,3.65
2022-08-08T14:26:28.057Z,3.47
2022-08-08T14:32:05.863Z,3.67
2022-08-08T14:36:54.581Z,3.30
2022-08-08T14:42:07.636Z,4.40
2022-08-08T14:47:21.046Z,3.70
2022-08-08T14:52:24.522Z,3.85
2022-08-08T14:58:02.299Z,4.00
2022-08-08T15:02:59.249Z,3.97
2022-08-08T15:08:21.792Z,3.38
2022-08-08T15:13:40.623Z,3.67
2022-08-08T15:19:00.337Z,3.08
2022-08-08T15:24:04.374Z,3.63
2022-08-08T15:29:12.229Z,2.72
2022-08-08T15:34:29.846Z,2.60
2022-08-08T15:39:38.592Z,3.20
2022-08-08T15:44:42.699Z,2.60
2022-08-08T15:49:47.629Z,2.65
2022-08-08T15:54:52.575Z,2.72
2022-08-08T16:00:05.688Z,2.20
2022-08-08T16:05:23.634Z,2.10
2022-08-08T16:13:27.451Z,3.20
2022-08-08T16:15:57.744Z,3.10
2022-08-08T16:21:20.781Z,2.35
2022-08-08T16:26:33.852Z,2.53
2022-08-08T16:31:49.099Z,2.63
2022-08-08T16:36:52.874Z,2.40
2022-08-08T16:42:01.140Z,2.88
2022-08-08T16:47:31.512Z,3.05
2022-08-08T16:55:06.470Z,2.58
2022-08-08T16:58:16.112Z,3.58
2022-08-08T17:03:25.239Z,3.13
2022-08-08T17:08:43.676Z,2.75
2022-08-08T17:14:01.100Z,3.13
2022-08-08T17:19:04.809Z,2.58
2022-08-08T17:24:21.915Z,3.72
2022-08-08T17:29:33.787Z,4.45
2022-08-08T17:35:14.372Z,4.43
2022-08-08T17:40:05.889Z,3.47
2022-08-08T17:45:22.855Z,2.92
2022-08-08T17:50:26.648Z,4.20
2022-08-08T17:56:06.353Z,2.60
2022-08-08T18:00:54.458Z,3.85
2022-08-08T18:06:00.579Z,3.22
2022-08-08T18:11:08.400Z,4.38
2022-08-08T18:16:12.931Z,3.75
2022-08-08T18:21:59.702Z,3.17
2022-08-08T18:26:54.653Z,3.55
2022-08-08T18:31:59.352Z,3.70
2022-08-08T18:37:08.010Z,4.43
2022-08-08T18:42:16.355Z,5.80
2022-08-08T18:47:20.441Z,4.35
2022-08-08T18:52:26.833Z,4.72
2022-08-08T18:57:31.694Z,4.57
2022-08-08T19:02:48.013Z,5.32
2022-08-08T19:07:52.828Z,5.20
2022-08-08T19:12:55.488Z,4.65
2022-08-08T19:18:31.115Z,4.57
2022-08-08T19:23:21.842Z,4.03
2022-08-08T19:28:24.770Z,4.75
2022-08-08T19:33:39.650Z,5.10
2022-08-08T19:38:51.665Z,4.75
2022-08-08T19:44:02.408Z,5.32
2022-08-08T19:49:06.304Z,4.63
2022-08-08T19:54:10.241Z,5.80
2022-08-08T19:59:13.041Z,5.10
2022-08-08T20:04:15.763Z,5.00
2022-08-08T20:09:22.589Z,5.47
2022-08-08T20:14:34.232Z,5.72
2022-08-08T20:19:42.196Z,6.30
2022-08-08T20:24:46.197Z,5.35
2022-08-08T20:29:55.905Z,6.65
2022-08-08T20:35:08.234Z,7.00
2022-08-08T20:40:16.690Z,7.15
2022-08-08T20:45:55.068Z,7.00
2022-08-08T20:50:42.685Z,11.90
2022-08-08T20:55:51.180Z,6.72
2022-08-08T21:00:54.421Z,6.53
2022-08-08T21:05:59.124Z,6.68
2022-08-08T21:11:02.535Z,6.45
2022-08-08T21:16:20.752Z,7.10
2022-08-08T21:21:39.576Z,6.63
2022-08-08T21:26:44.777Z,6.70
2022-08-08T21:31:58.928Z,6.35
2022-08-08T21:37:11.448Z,6.82
2022-08-08T21:42:19.128Z,6.78
2022-08-08T21:48:00.348Z,6.63
2022-08-08T21:54:32.566Z,6.13
2022-08-08T21:58:15.238Z,6.28
2022-08-08T22:03:19.956Z,6.18
2022-08-08T22:08:24.174Z,6.13
2022-08-08T22:13:43.299Z,5.88
2022-08-08T22:18:52.606Z,4.65
2022-08-08T22:23:55.881Z,5.50
2022-08-08T22:29:14.410Z,4.90
2022-08-08T22:34:23.729Z,4.68
2022-08-08T22:39:39.334Z,4.55
2022-08-08T22:44:48.694Z,4.93
2022-08-08T22:49:54.277Z,4.28
2022-08-08T22:55:05.919Z,4.55
2022-08-08T23:00:12.124Z,4.55
2022-08-08T23:05:16.255Z,4.10
2022-08-08T23:10:21.347Z,4.72
2022-08-08T23:16:37.895Z,4.85
2022-08-08T23:20:54.618Z,4.28
2022-08-08T23:25:58.227Z,4.70
2022-08-08T23:31:02.632Z,4.53
2022-08-08T23:36:08.222Z,3.42
2022-08-08T23:41:23.253Z,4.70
2022-08-08T23:49:02.528Z,4.55
2022-08-08T23:52:04.709Z,4.65
2022-08-08T23:57:15.235Z,4.30
